Time;durP1;ratioP1;P1;durP2;ratioP2;P2;SDS_P1;SDS_P2;PMS_P1;PMS_P2;Temp;Humidity;BMP_temperature;BMP_pressure;BME280_temperature;BME280_humidity;BME280_pressure;Samples;Min_cycle;Max_cycle;Signal;HPM_P1;HPM_P2
2022/01/05 00:00:38;;;;;;;;;86.80;80.80;18.90;99.90;;;;;;5059049;28;8772;-71
2022/01/05 00:03:04;;;;;;;;;96.60;87.60;18.90;99.90;;;;;;5065354;28;8876;-71
2022/01/05 00:05:32;;;;;;;;;89.40;79.80;18.80;99.90;;;;;;5041795;28;8862;-71
2022/01/05 00:07:58;;;;;;;;;86.40;77.60;18.70;99.90;;;;;;5040196;28;9405;-71
2022/01/05 00:10:25;;;;;;;;;81.00;70.20;18.70;99.90;;;;;;5039577;28;8765;-69
2022/01/05 00:12:53;;;;;;;;;77.20;66.60;18.70;99.90;;;;;;5040620;28;8839;-71
2022/01/05 00:15:20;;;;;;;;;75.60;59.20;18.70;99.90;;;;;;5039612;28;8729;-70
2022/01/05 00:17:47;;;;;;;;;73.20;60.00;18.80;99.90;;;;;;5039897;28;8768;-71
2022/01/05 00:20:14;;;;;;;;;75.60;63.40;18.80;99.90;;;;;;5039590;28;8829;-71
2022/01/05 00:22:41;;;;;;;;;73.60;55.20;18.80;99.90;;;;;;5039694;28;8729;-71
2022/01/05 00:25:08;;;;;;;;;77.40;66.60;18.80;99.90;;;;;;5040644;28;8906;-71
2022/01/05 00:27:34;;;;;;;;;80.00;71.60;18.90;99.90;;;;;;5039611;28;8859;-71
2022/01/05 00:30:01;;;;;;;;;84.60;77.80;18.90;99.90;;;;;;5039895;28;8917;-71
2022/01/05 00:32:28;;;;;;;;;86.00;73.00;18.80;99.90;;;;;;5040238;28;8877;-70
2022/01/05 00:34:54;;;;;;;;;80.00;66.20;18.90;99.90;;;;;;5059830;28;8773;-71
2022/01/05 00:37:21;;;;;;;;;97.40;89.80;18.90;99.90;;;;;;5058638;28;8730;-70
2022/01/05 00:39:48;;;;;;;;;85.80;75.60;18.80;99.90;;;;;;5059387;28;8815;-71
2022/01/05 00:42:15;;;;;;;;;95.60;80.20;18.90;99.90;;;;;;5059435;28;8742;-71
2022/01/05 00:44:41;;;;;;;;;99.20;85.80;18.90;99.90;;;;;;5059501;28;8765;-70
2022/01/05 00:47:08;;;;;;;;;90.20;75.80;19.00;99.90;;;;;;5049692;28;8924;-71
2022/01/05 00:49:35;;;;;;;;;107.40;90.60;19.10;99.90;;;;;;5039234;28;8736;-70
2022/01/05 00:52:01;;;;;;;;;99.40;89.40;19.10;99.90;;;;;;5039980;28;8787;-71
2022/01/05 00:54:28;;;;;;;;;108.80;96.20;19.00;99.90;;;;;;5037210;28;8748;-70
2022/01/05 00:56:55;;;;;;;;;118.80;107.40;19.10;99.90;;;;;;5039103;28;8747;-71
2022/01/05 00:59:22;;;;;;;;;110.80;100.60;19.10;99.90;;;;;;5038735;28;8712;-70
2022/01/05 01:01:49;;;;;;;;;114.80;98.80;19.10;99.90;;;;;;5038080;28;8849;-70
2022/01/05 01:04:16;;;;;;;;;179.67;164.67;19.10;99.90;;;;;;5047961;28;8769;-71
2022/01/05 01:06:43;;;;;;;;;204.25;182.25;19.20;99.90;;;;;;5060209;28;8848;-70
2022/01/05 01:09:09;;;;;;;;;136.80;122.20;19.10;99.90;;;;;;5059638;28;10053;-71
2022/01/05 01:11:36;;;;;;;;;97.20;93.60;19.30;99.90;;;;;;5058687;28;9176;-69
2022/01/05 01:14:03;;;;;;;;;115.20;100.80;19.40;99.90;;;;;;5058900;28;8769;-69
2022/01/05 01:16:30;;;;;;;;;102.80;95.40;19.50;99.90;;;;;;5057747;28;8828;-69
2022/01/05 01:18:56;;;;;;;;;86.80;79.40;19.50;99.90;;;;;;5058189;28;8754;-69
2022/01/05 01:21:23;;;;;;;;;98.40;89.80;19.70;99.90;;;;;;5057846;28;8780;-69
2022/01/05 01:23:55;;;;;;;;;81.00;70.80;19.80;99.90;;;;;;5059456;28;8746;-70
2022/01/05 01:26:23;;;;;;;;;78.00;64.40;19.80;99.90;;;;;;5047341;28;8789;-69
2022/01/05 01:28:50;;;;;;;;;70.60;55.20;19.90;99.90;;;;;;5058791;28;8758;-69
2022/01/05 01:31:16;;;;;;;;;66.60;52.60;20.10;99.90;;;;;;5059358;28;8813;-69
2022/01/05 01:33:43;;;;;;;;;66.80;52.00;20.20;99.90;;;;;;5058676;28;8795;-69
2022/01/05 01:36:10;;;;;;;;;66.80;54.00;20.30;99.90;;;;;;5058558;28;8931;-69
2022/01/05 01:38:37;;;;;;;;;68.60;54.00;20.30;99.90;;;;;;5058038;28;8781;-70
2022/01/05 01:41:03;;;;;;;;;69.60;53.00;20.40;99.90;;;;;;5058654;28;8762;-70
2022/01/05 01:43:30;;;;;;;;;65.50;51.25;20.30;99.90;;;;;;5058023;28;8851;-69
2022/01/05 01:45:57;;;;;;;;;66.20;51.20;20.30;99.90;;;;;;5059146;28;8746;-70
2022/01/05 01:48:24;;;;;;;;;66.00;51.25;20.30;99.90;;;;;;5057810;28;8789;-69
2022/01/05 01:50:51;;;;;;;;;63.00;51.00;20.40;99.90;;;;;;5058646;28;8785;-69
2022/01/05 01:53:17;;;;;;;;;64.25;49.25;20.50;99.90;;;;;;5057848;28;8891;-68
2022/01/05 01:55:44;;;;;;;;;62.00;48.75;20.60;99.90;;;;;;5058307;28;8742;-70
2022/01/05 01:58:10;;;;;;;;;61.50;48.00;20.60;99.90;;;;;;5057444;28;8826;-69
2022/01/05 02:00:37;;;;;;;;;63.25;50.50;20.70;99.90;;;;;;5073318;28;8785;-69
2022/01/05 02:03:07;;;;;;;;;62.25;48.75;20.80;99.90;;;;;;5058358;28;8758;-70
2022/01/05 02:05:33;;;;;;;;;62.25;49.00;21.00;99.90;;;;;;5057038;28;9434;-69
2022/01/05 02:08:02;;;;;;;;;64.00;48.50;21.00;99.90;;;;;;5058128;28;8816;-69
2022/01/05 02:10:28;;;;;;;;;62.75;48.50;21.00;99.90;;;;;;5057691;28;8726;-69
2022/01/05 02:12:55;;;;;;;;;56.75;44.00;21.10;99.90;;;;;;5058151;28;8770;-69
2022/01/05 02:15:22;;;;;;;;;62.25;49.00;21.10;99.90;;;;;;5057536;28;8753;-69
2022/01/05 02:17:57;;;;;;;;;59.00;47.50;21.20;99.90;;;;;;5057766;28;8801;-69
2022/01/05 02:20:26;;;;;;;;;58.50;46.50;21.10;99.90;;;;;;5057509;28;9260;-69
2022/01/05 02:22:53;;;;;;;;;57.50;45.50;21.30;99.90;;;;;;5072856;28;8815;-69
2022/01/05 02:25:20;;;;;;;;;61.25;48.00;21.60;99.90;;;;;;5058017;28;8758;-68
2022/01/05 02:27:48;;;;;;;;;62.25;48.00;21.70;99.90;;;;;;5057532;28;8856;-69
2022/01/05 02:30:19;;;;;;;;;57.50;46.50;21.60;99.90;;;;;;5057599;28;8835;-69
2022/01/05 02:32:46;;;;;;;;;61.25;48.00;21.70;99.90;;;;;;5056029;28;8790;-69
2022/01/05 02:35:12;;;;;;;;;61.75;47.50;21.90;99.90;;;;;;5055940;28;8773;-70
2022/01/05 02:37:50;;;;;;;;;78.60;63.40;22.00;99.90;;;;;;5056014;28;8835;-69
2022/01/05 02:40:17;;;;;;;;;64.75;50.25;22.10;99.90;;;;;;5040748;28;8746;-68
2022/01/05 02:42:44;;;;;;;;;61.75;48.25;22.20;99.90;;;;;;5072687;28;8779;-69
2022/01/05 02:45:12;;;;;;;;;62.75;48.25;22.30;99.90;;;;;;5057677;28;8746;-69
2022/01/05 02:47:39;;;;;;;;;196.25;163.75;22.50;99.90;;;;;;5057033;28;8801;-69
2022/01/05 02:50:06;;;;;;;;;62.00;47.75;22.50;99.90;;;;;;5057572;28;8855;-69
2022/01/05 02:52:33;;;;;;;;;59.75;49.00;22.70;99.90;;;;;;5055242;28;8864;-69
2022/01/05 02:55:03;;;;;;;;;59.00;47.50;22.80;99.90;;;;;;5058812;28;8831;-69
2022/01/05 02:57:30;;;;;;;;;50.50;42.00;22.90;99.90;;;;;;5057631;28;8750;-70
2022/01/05 02:59:56;;;;;;;;;60.00;45.50;22.80;99.90;;;;;;5056411;28;8837;-70
2022/01/05 03:02:23;;;;;;;;;47.50;38.25;22.90;99.90;;;;;;5055647;28;8761;-69
2022/01/05 03:04:50;;;;;;;;;49.00;40.75;22.90;99.90;;;;;;5057171;28;8756;-69
2022/01/05 03:07:17;;;;;;;;;66.50;52.25;23.10;99.90;;;;;;5055998;28;8734;-66
2022/01/05 03:09:44;;;;;;;;;81.20;64.40;23.10;99.90;;;;;;5057206;28;8718;-69
2022/01/05 03:12:13;;;;;;;;;75.20;57.40;23.30;99.90;;;;;;5056689;28;8766;-69
2022/01/05 03:14:40;;;;;;;;;75.20;56.00;23.40;99.90;;;;;;5056767;28;8718;-70
2022/01/05 03:17:07;;;;;;;;;56.00;45.75;23.50;99.90;;;;;;5056934;28;8741;-70
2022/01/05 03:19:33;;;;;;;;;51.25;42.00;23.40;99.90;;;;;;5056620;28;8714;-69
2022/01/05 03:22:00;;;;;;;;;54.25;44.25;23.20;99.90;;;;;;5057658;28;8748;-69
2022/01/05 03:24:27;;;;;;;;;83.80;69.40;23.40;99.90;;;;;;5055271;28;8778;-70
2022/01/05 03:26:53;;;;;;;;;73.20;56.80;23.70;99.90;;;;;;5056716;28;8770;-69
2022/01/05 03:29:20;;;;;;;;;57.50;46.75;23.60;99.90;;;;;;5055405;28;8753;-69
2022/01/05 03:31:47;;;;;;;;;60.00;46.25;23.70;99.90;;;;;;5056719;28;8796;-69
2022/01/05 03:34:19;;;;;;;;;56.25;42.75;23.90;99.90;;;;;;5056798;28;8823;-69
2022/01/05 03:36:46;;;;;;;;;55.25;45.25;23.90;99.90;;;;;;5056561;28;8781;-69
2022/01/05 03:39:13;;;;;;;;;52.50;41.50;23.90;99.90;;;;;;5055370;28;8754;-69
2022/01/05 03:41:39;;;;;;;;;52.25;41.50;23.90;99.90;;;;;;5055549;28;8773;-68
2022/01/05 03:44:06;;;;;;;;;52.75;41.00;24.10;99.90;;;;;;5057378;28;8766;-70
2022/01/05 03:46:33;;;;;;;;;52.75;42.25;24.10;99.90;;;;;;5056671;28;8757;-70
2022/01/05 03:49:00;;;;;;;;;57.25;44.75;24.00;99.90;;;;;;5056879;28;8789;-70
2022/01/05 03:51:26;;;;;;;;;54.25;44.25;23.80;99.90;;;;;;5056187;28;8802;-69
2022/01/05 03:53:56;;;;;;;;;50.75;43.75;23.90;99.90;;;;;;5056465;28;9446;-70
2022/01/05 03:56:23;;;;;;;;;53.50;43.50;23.90;99.90;;;;;;5071496;28;8773;-69
2022/01/05 03:58:50;;;;;;;;;51.75;41.50;24.30;99.90;;;;;;5056546;28;8770;-69
2022/01/05 04:01:16;;;;;;;;;51.50;41.75;24.70;99.90;;;;;;5055775;28;8856;-65
2022/01/05 04:03:43;;;;;;;;;50.25;42.50;25.00;99.90;;;;;;5056403;28;8765;-69
2022/01/05 04:06:10;;;;;;;;;51.50;40.25;25.10;99.90;;;;;;5055632;28;8854;-70
2022/01/05 04:08:36;;;;;;;;;45.50;38.25;25.30;99.90;;;;;;5056385;28;8758;-69
2022/01/05 04:11:03;;;;;;;;;51.25;40.75;25.30;99.90;;;;;;5056438;28;9429;-70
2022/01/05 04:13:30;;;;;;;;;56.75;43.25;25.50;99.90;;;;;;5056191;28;8753;-70
2022/01/05 04:15:56;;;;;;;;;55.75;43.50;25.40;99.90;;;;;;5057183;28;8734;-69
2022/01/05 04:18:23;;;;;;;;;44.75;33.50;25.40;99.90;;;;;;5055976;28;8758;-69
2022/01/05 04:20:52;;;;;;;;;49.50;41.25;25.50;99.90;;;;;;5056500;28;8801;-69
2022/01/05 04:23:19;;;;;;;;;52.25;40.25;25.50;99.90;;;;;;5054937;28;8761;-67
2022/01/05 04:25:45;;;;;;;;;52.50;42.00;25.60;99.90;;;;;;5056602;28;8815;-68
2022/01/05 04:28:12;;;;;;;;;51.25;40.75;25.70;99.90;;;;;;5056545;28;8860;-69
2022/01/05 04:30:39;;;;;;;;;47.00;40.00;25.60;99.90;;;;;;5060115;28;8788;-69
2022/01/05 04:33:05;;;;;;;;;50.50;39.50;25.70;99.90;;;;;;5059328;28;8750;-69
2022/01/05 04:35:35;;;;;;;;;51.00;42.00;25.80;99.90;;;;;;5059161;28;8784;-69
2022/01/05 04:38:02;;;;;;;;;48.50;40.25;25.80;99.90;;;;;;5059838;28;8734;-69
2022/01/05 04:40:31;;;;;;;;;49.75;39.50;25.90;99.90;;;;;;5041540;28;8726;-69
2022/01/05 04:42:58;;;;;;;;;47.00;38.50;26.10;99.90;;;;;;5060307;28;8740;-69
2022/01/05 04:45:25;;;;;;;;;47.00;39.75;26.40;99.90;;;;;;5059358;28;8741;-68
2022/01/05 04:47:51;;;;;;;;;47.50;39.00;26.50;99.80;;;;;;5059153;28;8750;-69
2022/01/05 04:50:19;;;;;;;;;48.25;39.25;26.50;99.60;;;;;;5059519;28;8796;-68
2022/01/05 04:52:45;;;;;;;;;51.75;41.25;26.50;99.00;;;;;;5059071;28;8796;-69
2022/01/05 04:55:12;;;;;;;;;46.75;38.25;26.30;99.00;;;;;;5059956;28;8750;-69
2022/01/05 04:57:39;;;;;;;;;47.00;37.25;26.50;99.20;;;;;;5059274;28;8868;-69
2022/01/05 05:00:06;;;;;;;;;49.75;39.75;26.60;99.20;;;;;;5059203;28;9383;-70
2022/01/05 05:02:33;;;;;;;;;49.00;39.75;26.70;98.50;;;;;;5059174;28;8895;-69
2022/01/05 05:05:00;;;;;;;;;46.50;36.00;26.80;98.40;;;;;;5059308;28;8773;-69
2022/01/05 05:07:29;;;;;;;;;46.75;38.00;26.90;98.10;;;;;;5058842;28;8742;-68
2022/01/05 05:09:56;;;;;;;;;45.25;37.50;26.90;97.80;;;;;;5042088;28;8706;-69
2022/01/05 05:12:23;;;;;;;;;46.25;38.00;26.90;98.20;;;;;;5057475;28;8973;-69
2022/01/05 05:14:50;;;;;;;;;41.00;34.00;26.40;97.70;;;;;;5059067;28;8879;-68
2022/01/05 05:17:17;;;;;;;;;44.00;35.75;26.20;98.70;;;;;;5057531;28;8758;-68
2022/01/05 05:19:44;;;;;;;;;40.00;33.75;26.60;98.30;;;;;;5059070;28;8744;-68
2022/01/05 05:22:10;;;;;;;;;43.75;36.75;26.90;97.50;;;;;;5059418;28;8729;-69
2022/01/05 05:24:37;;;;;;;;;31.25;29.50;27.10;97.40;;;;;;5058650;28;8761;-70
2022/01/05 05:27:04;;;;;;;;;41.00;35.50;27.20;97.80;;;;;;5058742;28;9414;-69
2022/01/05 05:29:31;;;;;;;;;39.00;34.00;27.30;96.90;;;;;;5058527;28;8785;-69
2022/01/05 05:31:57;;;;;;;;;45.50;37.25;27.50;96.30;;;;;;5058459;28;8766;-68
2022/01/05 05:34:25;;;;;;;;;41.00;33.50;27.50;96.30;;;;;;5058851;28;8788;-68
2022/01/05 05:36:52;;;;;;;;;44.25;36.00;27.50;96.00;;;;;;5057181;28;9758;-69
2022/01/05 05:39:18;;;;;;;;;45.25;39.00;27.50;96.30;;;;;;5057124;28;8792;-68
2022/01/05 05:41:48;;;;;;;;;44.75;37.00;27.20;96.60;;;;;;5057591;28;8876;-69
2022/01/05 05:44:15;;;;;;;;;47.75;38.50;27.00;97.20;;;;;;5058754;28;8866;-69
2022/01/05 05:46:41;;;;;;;;;42.50;35.75;27.20;97.20;;;;;;5057313;28;9434;-68
2022/01/05 05:49:08;;;;;;;;;39.50;33.25;27.60;96.30;;;;;;5059142;28;8766;-69
2022/01/05 05:51:35;;;;;;;;;40.25;34.50;27.80;95.90;;;;;;5058313;28;8915;-69
2022/01/05 05:54:02;;;;;;;;;41.25;35.75;27.80;95.50;;;;;;5058457;28;8778;-68
2022/01/05 05:56:28;;;;;;;;;44.00;36.25;27.80;95.80;;;;;;5057994;28;8761;-69
2022/01/05 05:58:55;;;;;;;;;34.25;31.75;27.90;95.10;;;;;;5058448;28;8757;-69
2022/01/05 06:01:22;;;;;;;;;32.75;30.25;27.90;95.40;;;;;;5057951;28;8746;-68
2022/01/05 06:03:48;;;;;;;;;39.75;34.75;28.00;94.90;;;;;;5073735;28;8773;-69
2022/01/05 06:06:15;;;;;;;;;42.50;34.25;27.90;95.30;;;;;;5058277;28;8757;-69
2022/01/05 06:08:42;;;;;;;;;38.50;35.25;27.90;95.20;;;;;;5058020;28;8773;-68
2022/01/05 06:11:09;;;;;;;;;41.25;36.00;27.90;95.60;;;;;;5058124;28;8795;-68
2022/01/05 06:13:36;;;;;;;;;40.25;34.00;28.10;94.90;;;;;;5056694;28;8745;-68
2022/01/05 06:16:02;;;;;;;;;41.50;33.75;28.30;94.70;;;;;;5058666;28;8827;-68
2022/01/05 06:18:29;;;;;;;;;44.50;35.50;28.10;94.80;;;;;;5057484;28;8754;-67
2022/01/05 06:20:56;;;;;;;;;35.00;31.00;28.20;94.90;;;;;;5057957;28;8777;-68
2022/01/05 06:23:22;;;;;;;;;40.00;33.25;28.40;94.60;;;;;;5057818;28;8770;-68
2022/01/05 06:25:49;;;;;;;;;36.25;32.25;28.60;94.10;;;;;;5057989;28;8777;-69
2022/01/05 06:28:16;;;;;;;;;36.25;32.25;28.50;93.60;;;;;;5058487;28;8852;-69
2022/01/05 06:30:42;;;;;;;;;36.25;30.00;28.50;93.80;;;;;;5057912;28;9403;-68
2022/01/05 06:33:09;;;;;;;;;34.00;29.75;28.50;93.80;;;;;;5057452;28;8741;-68
2022/01/05 06:35:42;;;;;;;;;38.25;31.25;28.30;94.10;;;;;;5057249;28;8762;-72
2022/01/05 06:38:11;;;;;;;;;35.25;31.00;28.40;94.70;;;;;;5057331;28;8804;-70
2022/01/05 06:40:39;;;;;;;;;31.75;29.50;28.60;94.20;;;;;;5055221;28;8745;-70
2022/01/05 06:43:06;;;;;;;;;31.00;28.75;28.70;92.80;;;;;;5071494;28;8726;-71
2022/01/05 06:45:32;;;;;;;;;34.75;29.25;28.70;93.40;;;;;;5057425;28;8722;-71
2022/01/05 06:48:00;;;;;;;;;34.50;26.25;28.80;92.20;;;;;;5056320;28;8756;-68
2022/01/05 06:50:27;;;;;;;;;32.00;27.50;28.80;92.40;;;;;;5056080;28;8749;-69
2022/01/05 06:52:56;;;;;;;;;24.25;23.75;28.90;92.40;;;;;;5056610;28;8847;-69
2022/01/05 06:55:23;;;;;;;;;28.00;26.50;29.10;91.70;;;;;;5073048;28;8737;-70
2022/01/05 06:57:51;;;;;;;;;29.00;28.50;29.10;91.90;;;;;;5057734;28;8746;-69
2022/01/05 07:00:18;;;;;;;;;30.00;27.25;29.00;91.50;;;;;;5057585;28;8991;-70
2022/01/05 07:02:45;;;;;;;;;29.00;26.75;28.80;91.80;;;;;;5057442;28;8738;-71
2022/01/05 07:05:11;;;;;;;;;29.50;29.00;28.90;91.80;;;;;;5057593;28;8765;-71
2022/01/05 07:07:38;;;;;;;;;32.50;30.25;29.00;92.10;;;;;;5057136;28;8794;-71
2022/01/05 07:10:06;;;;;;;;;33.00;30.25;29.00;92.40;;;;;;5057941;28;8745;-72
2022/01/05 07:12:33;;;;;;;;;33.00;28.25;29.20;91.80;;;;;;5056730;28;8749;-71
2022/01/05 07:15:00;;;;;;;;;29.50;28.25;29.30;91.70;;;;;;5057285;28;8758;-71
2022/01/05 07:17:27;;;;;;;;;29.00;28.75;29.40;90.80;;;;;;5045455;28;8783;-70
2022/01/05 07:19:53;;;;;;;;;31.75;29.50;29.30;90.90;;;;;;5024059;28;8747;-71
2022/01/05 07:22:20;;;;;;;;;32.00;30.75;29.30;90.70;;;;;;5037306;28;8849;-71
2022/01/05 07:24:47;;;;;;;;;23.25;23.25;29.20;91.80;;;;;;5037136;28;8883;-71
2022/01/05 07:27:13;;;;;;;;;23.75;22.00;29.30;90.30;;;;;;5036889;28;9109;-71
2022/01/05 07:29:40;;;;;;;;;26.00;23.75;29.40;89.50;;;;;;5036842;28;8772;-71
2022/01/05 07:32:07;;;;;;;;;24.25;21.75;29.50;88.40;;;;;;5036749;28;8773;-72
2022/01/05 07:34:34;;;;;;;;;24.25;22.25;29.60;86.90;;;;;;5055251;28;8769;-71
2022/01/05 07:37:00;;;;;;;;;22.75;20.00;29.10;88.30;;;;;;5056995;28;8800;-65
2022/01/05 07:39:27;;;;;;;;;24.00;23.00;29.20;88.30;;;;;;5055467;28;8812;-72
2022/01/05 07:41:55;;;;;;;;;21.50;19.75;29.20;87.70;;;;;;5056570;28;8828;-71
2022/01/05 07:44:21;;;;;;;;;23.75;19.25;29.40;85.10;;;;;;5056500;28;9576;-71
2022/01/05 07:46:48;;;;;;;;;21.25;19.00;29.40;84.00;;;;;;5056575;28;9051;-71
2022/01/05 07:49:15;;;;;;;;;24.50;21.00;29.50;83.60;;;;;;5056921;28;8758;-71
2022/01/05 07:51:41;;;;;;;;;25.25;23.50;29.50;84.20;;;;;;5056362;28;8770;-71
2022/01/05 07:54:08;;;;;;;;;25.75;23.25;29.60;83.60;;;;;;5055116;28;8778;-72
2022/01/05 07:56:35;;;;;;;;;19.20;17.80;29.70;84.10;;;;;;5056457;28;8772;-72
2022/01/05 07:59:02;;;;;;;;;14.20;14.20;29.70;81.00;;;;;;5056450;28;8781;-71
2022/01/05 08:01:28;;;;;;;;;21.80;19.80;29.70;82.20;;;;;;5056515;28;9398;-71
2022/01/05 08:03:55;;;;;;;;;23.50;21.25;29.80;81.60;;;;;;5057722;28;8773;-71
2022/01/05 08:06:22;;;;;;;;;20.50;20.50;29.80;81.80;;;;;;5060112;28;8758;-71
2022/01/05 08:08:49;;;;;;;;;17.40;17.40;29.80;81.40;;;;;;5060581;28;9740;-72
2022/01/05 08:11:16;;;;;;;;;21.60;18.40;29.80;79.30;;;;;;5060345;28;8780;-72
2022/01/05 08:13:43;;;;;;;;;21.80;17.60;29.70;80.30;;;;;;5060127;28;8749;-71
2022/01/05 08:16:10;;;;;;;;;18.80;17.60;29.80;79.10;;;;;;5059784;28;8770;-71
2022/01/05 08:18:37;;;;;;;;;20.50;19.00;29.90;78.50;;;;;;5059794;28;8802;-71
2022/01/05 08:21:03;;;;;;;;;16.00;15.00;29.90;78.80;;;;;;5059258;28;8884;-71
2022/01/05 08:23:30;;;;;;;;;21.80;16.40;30.00;76.90;;;;;;5075333;28;8936;-72
2022/01/05 08:25:57;;;;;;;;;17.40;16.00;30.10;77.40;;;;;;5058455;28;9407;-72
2022/01/05 08:28:23;;;;;;;;;15.00;15.00;30.10;75.10;;;;;;5060361;28;8742;-71
2022/01/05 08:30:50;;;;;;;;;17.00;16.40;30.00;76.90;;;;;;5060289;28;8815;-72
2022/01/05 08:33:17;;;;;;;;;13.80;13.40;30.00;76.20;;;;;;5059914;28;8726;-71
2022/01/05 08:35:45;;;;;;;;;18.00;17.20;30.10;75.60;;;;;;5059743;28;8769;-72
2022/01/05 08:38:12;;;;;;;;;18.20;15.80;30.20;75.30;;;;;;5058709;28;8778;-72
2022/01/05 08:40:39;;;;;;;;;17.60;13.60;30.10;73.40;;;;;;5059800;28;9479;-71
2022/01/05 08:43:06;;;;;;;;;16.25;14.00;30.10;73.70;;;;;;5059378;28;8765;-71
2022/01/05 08:45:33;;;;;;;;;15.00;13.80;30.10;71.50;;;;;;5059489;28;8753;-71
2022/01/05 08:47:59;;;;;;;;;13.80;11.80;30.10;72.30;;;;;;5059559;28;8734;-71
2022/01/05 08:50:29;;;;;;;;;18.60;15.40;30.10;71.50;;;;;;5059512;28;8935;-71
2022/01/05 08:52:57;;;;;;;;;16.80;14.20;30.20;71.90;;;;;;5059334;28;8773;-72
2022/01/05 08:55:28;;;;;;;;;14.60;14.20;30.20;70.50;;;;;;5059679;28;8718;-70
2022/01/05 08:57:56;;;;;;;;;12.80;11.80;30.30;70.90;;;;;;5060102;28;8726;-72
2022/01/05 09:00:22;;;;;;;;;17.20;13.20;30.10;69.20;;;;;;5059375;28;8745;-71
2022/01/05 09:02:50;;;;;;;;;13.00;11.20;30.10;69.50;;;;;;5057766;28;8753;-71
2022/01/05 09:05:17;;;;;;;;;14.40;14.00;30.20;70.00;;;;;;5058841;28;8749;-72
2022/01/05 09:07:44;;;;;;;;;15.60;13.80;30.20;69.00;;;;;;5041563;28;8769;-71
2022/01/05 09:10:10;;;;;;;;;9.60;9.00;30.20;69.70;;;;;;5058495;28;8730;-72
2022/01/05 09:12:37;;;;;;;;;14.60;13.00;30.20;68.20;;;;;;5057305;28;8838;-71
2022/01/05 09:15:04;;;;;;;;;12.80;12.00;30.20;67.60;;;;;;5058524;28;8762;-72
2022/01/05 09:17:31;;;;;;;;;13.40;13.40;30.20;67.40;;;;;;5058577;28;8760;-72
2022/01/05 09:19:58;;;;;;;;;17.00;13.00;30.20;67.50;;;;;;5059187;28;8777;-71
2022/01/05 09:22:25;;;;;;;;;19.00;15.40;30.00;68.30;;;;;;5040471;28;9450;-68
2022/01/05 09:24:52;;;;;;;;;15.40;14.40;29.80;70.30;;;;;;5059575;28;8801;-71
2022/01/05 09:27:19;;;;;;;;;14.60;14.40;29.70;72.10;;;;;;5058940;28;9394;-69
2022/01/05 09:29:46;;;;;;;;;16.40;13.80;29.80;71.20;;;;;;5074539;28;8746;-72
2022/01/05 09:32:13;;;;;;;;;16.00;13.00;29.80;68.70;;;;;;5058957;28;8916;-72
2022/01/05 09:34:42;;;;;;;;;13.40;13.40;29.70;70.40;;;;;;5058414;28;8772;-72
2022/01/05 09:37:17;;;;;;;;;15.00;14.00;29.60;71.40;;;;;;5058205;28;8762;-72
2022/01/05 09:42:30;;;;;;;;;15.80;14.80;29.70;73.20;;;;;;5057422;28;8770;-71
2022/01/05 09:44:56;;;;;;;;;10.40;10.40;29.50;72.80;;;;;;5058459;28;8785;-72
2022/01/05 09:47:36;;;;;;;;;15.40;13.60;29.30;73.80;;;;;;5056792;28;9441;-71
2022/01/05 09:50:11;;;;;;;;;15.60;14.00;29.30;73.30;;;;;;5058762;28;8760;-72
2022/01/05 09:52:39;;;;;;;;;15.00;12.20;29.30;73.30;;;;;;5058173;28;8841;-72
2022/01/05 09:55:06;;;;;;;;;16.00;15.80;29.40;72.50;;;;;;5057759;28;9402;-72
2022/01/05 09:57:33;;;;;;;;;14.00;13.20;29.40;72.30;;;;;;5058220;28;8765;-71
2022/01/05 10:00:00;;;;;;;;;17.00;14.60;29.40;70.80;;;;;;5058343;28;8764;-72
2022/01/05 10:02:28;;;;;;;;;18.40;17.00;29.40;70.10;;;;;;5057839;28;8781;-71
2022/01/05 10:04:55;;;;;;;;;15.40;15.00;29.40;71.40;;;;;;5056921;28;8750;-72
2022/01/05 10:07:21;;;;;;;;;16.25;14.75;29.30;72.70;;;;;;5057405;28;9406;-72
2022/01/05 10:09:49;;;;;;;;;16.60;15.80;29.20;72.70;;;;;;5058305;28;8863;-72
2022/01/05 10:12:16;;;;;;;;;18.80;16.40;29.20;71.10;;;;;;5057994;28;8801;-72
2022/01/05 10:14:47;;;;;;;;;17.25;14.25;29.30;71.80;;;;;;5056864;28;8879;-72
2022/01/05 10:17:28;;;;;;;;;15.50;14.75;29.30;72.10;;;;;;5058253;28;8761;-72
2022/01/05 10:20:06;;;;;;;;;15.60;15.60;29.10;73.40;;;;;;5053482;28;8753;-72
2022/01/05 10:22:45;;;;;;;;;14.80;14.60;29.00;73.30;;;;;;5019698;28;9290;-72
2022/01/05 10:25:15;;;;;;;;;17.80;15.40;28.90;73.80;;;;;;5038826;28;8753;-72
2022/01/05 10:27:43;;;;;;;;;15.80;15.20;28.90;73.00;;;;;;5035974;28;10068;-72
2022/01/05 10:30:14;;;;;;;;;18.00;15.20;28.70;73.30;;;;;;5037484;28;8804;-72
2022/01/05 10:32:45;;;;;;;;;16.20;14.80;28.60;73.70;;;;;;5040759;28;8797;-72
2022/01/05 10:35:11;;;;;;;;;14.00;13.60;28.60;72.80;;;;;;5057657;28;8757;-72
2022/01/05 10:37:40;;;;;;;;;19.00;18.00;28.60;72.50;;;;;;5057286;28;8742;-72
2022/01/05 10:40:11;;;;;;;;;16.00;14.60;28.60;72.50;;;;;;5058069;28;8750;-72
2022/01/05 10:42:38;;;;;;;;;14.50;14.00;28.60;73.00;;;;;;5057379;28;8785;-71
2022/01/05 10:45:10;;;;;;;;;16.50;16.50;28.50;73.80;;;;;;5057918;28;8789;-72
2022/01/05 10:47:36;;;;;;;;;14.00;12.00;28.40;75.40;;;;;;5057316;28;8761;-71
2022/01/05 10:50:05;;;;;;;;;18.00;15.00;28.20;76.20;;;;;;5058514;28;8819;-72
2022/01/05 10:52:35;;;;;;;;;19.75;16.00;28.10;79.40;;;;;;5057069;28;8928;-71
2022/01/05 10:55:14;;;;;;;;;20.00;18.25;27.90;80.70;;;;;;5058290;28;8772;-71
2022/01/05 10:58:05;;;;;;;;;18.00;16.20;27.70;78.30;;;;;;5058028;28;8770;-71
2022/01/05 11:00:32;;;;;;;;;18.40;14.00;27.70;78.40;;;;;;5045563;28;8791;-71
2022/01/05 11:02:59;;;;;;;;;28.60;25.20;27.60;79.60;;;;;;5057360;28;8769;-72
2022/01/05 11:05:26;;;;;;;;;38.25;29.50;27.40;81.60;;;;;;5072609;28;9406;-72
2022/01/05 11:08:05;;;;;;;;;49.00;41.25;27.40;84.20;;;;;;5055891;28;9528;-71
2022/01/05 11:10:32;;;;;;;;;31.75;27.75;27.30;84.60;;;;;;5055500;28;8782;-71
2022/01/05 11:12:59;;;;;;;;;23.25;20.00;27.10;83.10;;;;;;5057280;28;8774;-71
2022/01/05 11:15:30;;;;;;;;;25.25;21.00;27.10;82.90;;;;;;5056989;28;8791;-71
2022/01/05 11:18:11;;;;;;;;;23.75;22.50;27.00;83.60;;;;;;5057015;28;8778;-71
2022/01/05 11:20:40;;;;;;;;;28.75;23.25;26.90;85.80;;;;;;5056987;28;8777;-71
2022/01/05 11:23:07;;;;;;;;;20.75;19.00;26.80;85.70;;;;;;5038906;28;8754;-71
2022/01/05 11:25:35;;;;;;;;;50.25;41.25;26.70;84.90;;;;;;5056292;28;8753;-71
2022/01/05 11:28:02;;;;;;;;;50.75;39.75;26.70;84.40;;;;;;5056139;28;8750;-72
2022/01/05 11:30:29;;;;;;;;;88.20;76.40;26.70;85.30;;;;;;5056636;28;8792;-72
2022/01/05 11:32:56;;;;;;;;;136.40;122.00;26.60;86.00;;;;;;5055333;28;8958;-72
2022/01/05 11:35:23;;;;;;;;;78.00;62.00;26.50;85.50;;;;;;5048135;28;8882;-71
2022/01/05 11:37:50;;;;;;;;;77.60;67.00;26.50;87.50;;;;;;5064287;28;8892;-72
2022/01/05 11:40:17;;;;;;;;;98.20;86.20;26.30;88.80;;;;;;5056686;28;8764;-71
2022/01/05 11:42:48;;;;;;;;;78.20;63.40;26.10;90.40;;;;;;5056853;28;8852;-71
2022/01/05 11:45:33;;;;;;;;;79.60;66.00;25.90;90.70;;;;;;5056424;28;8766;-71
2022/01/05 11:48:21;;;;;;;;;74.20;59.60;25.80;91.00;;;;;;5056382;28;8761;-72
2022/01/05 11:50:48;;;;;;;;;76.00;62.60;25.70;90.80;;;;;;5055461;28;8784;-72
2022/01/05 11:53:31;;;;;;;;;74.40;59.40;25.80;91.10;;;;;;5055441;28;8796;-72
2022/01/05 11:56:02;;;;;;;;;69.80;54.80;25.70;91.40;;;;;;5057253;28;8742;-72
2022/01/05 11:58:30;;;;;;;;;73.20;52.80;25.70;91.50;;;;;;5057054;28;8843;-71
2022/01/05 12:01:18;;;;;;;;;55.75;46.00;25.60;91.50;;;;;;5056991;28;9507;-72
2022/01/05 12:04:01;;;;;;;;;61.50;46.25;25.60;91.50;;;;;;5057088;28;8750;-71
2022/01/05 12:06:59;;;;;;;;;67.00;50.00;25.50;92.30;;;;;;5057034;28;8766;-72
2022/01/05 12:09:30;;;;;;;;;62.25;46.25;25.50;93.00;;;;;;5056610;28;8754;-72
2022/01/05 12:12:00;;;;;;;;;68.80;53.00;25.40;93.00;;;;;;5057181;28;8777;-71
2022/01/05 12:14:35;;;;;;;;;58.75;47.75;25.40;92.70;;;;;;5055227;28;8774;-71
2022/01/05 12:17:02;;;;;;;;;54.25;43.25;25.40;93.70;;;;;;5056968;28;8765;-72
2022/01/05 12:19:34;;;;;;;;;54.75;45.25;25.20;94.30;;;;;;5055721;28;8847;-71
2022/01/05 12:22:18;;;;;;;;;52.25;39.75;25.20;94.70;;;;;;5056948;28;8750;-71
2022/01/05 12:24:57;;;;;;;;;62.25;46.50;25.20;95.70;;;;;;5055581;28;8749;-71
2022/01/05 12:27:24;;;;;;;;;69.50;53.00;25.10;96.20;;;;;;5056055;28;9907;-71
2022/01/05 12:29:51;;;;;;;;;66.50;52.00;25.20;95.90;;;;;;5056226;28;9067;-71
2022/01/05 12:32:39;;;;;;;;;64.75;49.00;25.10;95.70;;;;;;5055934;28;8778;-70
2022/01/05 12:35:27;;;;;;;;;67.40;52.80;25.00;96.10;;;;;;5036540;28;8764;-72
2022/01/05 12:37:58;;;;;;;;;65.50;51.25;24.90;96.50;;;;;;5036470;28;8886;-72
2022/01/05 12:40:46;;;;;;;;;59.75;47.00;24.80;96.60;;;;;;5036411;28;9453;-69
2022/01/05 12:43:12;;;;;;;;;58.50;43.75;24.70;96.60;;;;;;5037024;28;8744;-72